sensor_id;sensor_type;location;lat;lon;timestamp;pressure;altitude;pressure_sealevel;temperature;humidity
50518;BME280;37075;44.084;2.962;2024-03-02T00:02:40;96877.88;;;8.77;62.47
50518;BME280;37075;44.084;2.962;2024-03-02T00:05:26;96876.28;;;8.76;62.57
50518;BME280;37075;44.084;2.962;2024-03-02T00:08:13;96874.72;;;8.75;62.64
50518;BME280;37075;44.084;2.962;2024-03-02T00:11:05;96875.84;;;8.74;62.56
50518;BME280;37075;44.084;2.962;2024-03-02T00:13:53;96873.13;;;8.74;62.81
50518;BME280;37075;44.084;2.962;2024-03-02T00:16:40;96874.72;;;8.75;62.72
50518;BME280;37075;44.084;2.962;2024-03-02T00:19:27;96862.69;;;8.76;62.89
50518;BME280;37075;44.084;2.962;2024-03-02T00:22:13;96876.28;;;8.76;63.01
50518;BME280;37075;44.084;2.962;2024-03-02T00:24:59;96876.44;;;8.67;64.23
50518;BME280;37075;44.084;2.962;2024-03-02T00:27:47;96876.22;;;8.60;64.55
50518;BME280;37075;44.084;2.962;2024-03-02T00:31:05;96877.00;;;8.60;64.33
50518;BME280;37075;44.084;2.962;2024-03-02T00:33:53;96873.50;;;8.60;64.50
50518;BME280;37075;44.084;2.962;2024-03-02T00:36:39;96880.06;;;8.59;64.59
50518;BME280;37075;44.084;2.962;2024-03-02T00:39:25;96877.00;;;8.60;64.24
50518;BME280;37075;44.084;2.962;2024-03-02T00:42:11;96867.38;;;8.63;64.23
50518;BME280;37075;44.084;2.962;2024-03-02T00:44:58;96858.53;;;8.66;64.23
50518;BME280;37075;44.084;2.962;2024-03-02T00:47:45;96860.81;;;8.64;64.14
50518;BME280;37075;44.084;2.962;2024-03-02T00:50:31;96857.75;;;8.65;64.10
50518;BME280;37075;44.084;2.962;2024-03-02T00:53:18;96858.63;;;8.70;64.37
50518;BME280;37075;44.084;2.962;2024-03-02T00:56:10;96865.66;;;8.71;64.29
50518;BME280;37075;44.084;2.962;2024-03-02T00:58:57;96851.72;;;8.72;64.13
50518;BME280;37075;44.084;2.962;2024-03-02T01:01:43;96852.50;;;8.73;64.04
50518;BME280;37075;44.084;2.962;2024-03-02T01:04:30;96854.09;;;8.74;63.99
50518;BME280;37075;44.084;2.962;2024-03-02T01:07:17;96861.13;;;8.75;64.04
50518;BME280;37075;44.084;2.962;2024-03-02T01:10:03;96861.13;;;8.75;64.12
50518;BME280;37075;44.084;2.962;2024-03-02T01:12:50;96855.69;;;8.75;64.21
50518;BME280;37075;44.084;2.962;2024-03-02T01:15:36;96851.81;;;8.76;64.20
50518;BME280;37075;44.084;2.962;2024-03-02T01:18:22;96854.53;;;8.76;64.30
50518;BME280;37075;44.084;2.962;2024-03-02T01:21:10;96853.41;;;8.77;64.31
50518;BME280;37075;44.084;2.962;2024-03-02T01:23:56;96851.13;;;8.79;64.29
50518;BME280;37075;44.084;2.962;2024-03-02T01:26:43;96845.69;;;8.79;64.00
50518;BME280;37075;44.084;2.962;2024-03-02T01:29:29;96846.50;;;8.79;64.30
50518;BME280;37075;44.084;2.962;2024-03-02T01:32:15;96848.88;;;8.81;64.15
50518;BME280;37075;44.084;2.962;2024-03-02T01:35:01;96848.88;;;8.81;64.33
50518;BME280;37075;44.084;2.962;2024-03-02T01:37:48;96837.19;;;8.80;64.32
50518;BME280;37075;44.084;2.962;2024-03-02T01:40:35;96835.28;;;8.81;64.35
50518;BME280;37075;44.084;2.962;2024-03-02T01:43:22;96819.31;;;8.79;64.26
50518;BME280;37075;44.084;2.962;2024-03-02T01:46:08;96804.91;;;8.79;64.36
50518;BME280;37075;44.084;2.962;2024-03-02T01:48:55;96793.25;;;8.78;64.34
50518;BME280;37075;44.084;2.962;2024-03-02T01:51:41;96797.91;;;8.78;64.65
50518;BME280;37075;44.084;2.962;2024-03-02T01:54:28;96804.47;;;8.77;64.45
50518;BME280;37075;44.084;2.962;2024-03-02T01:57:14;96796.66;;;8.75;64.42
50518;BME280;37075;44.084;2.962;2024-03-02T02:00:01;96795.88;;;8.75;64.42
50518;BME280;37075;44.084;2.962;2024-03-02T02:02:56;96800.06;;;8.72;64.78
50518;BME280;37075;44.084;2.962;2024-03-02T02:05:42;96811.97;;;8.55;65.43
50518;BME280;37075;44.084;2.962;2024-03-02T02:08:29;96796.47;;;8.56;65.10
50518;BME280;37075;44.084;2.962;2024-03-02T02:11:16;96800.44;;;8.58;65.05
50518;BME280;37075;44.084;2.962;2024-03-02T02:14:03;96797.41;;;8.60;65.12
50518;BME280;37075;44.084;2.962;2024-03-02T02:16:49;96796.59;;;8.59;65.10
50518;BME280;37075;44.084;2.962;2024-03-02T02:19:35;96795.47;;;8.60;65.11
50518;BME280;37075;44.084;2.962;2024-03-02T02:22:23;96790.81;;;8.61;65.11
50518;BME280;37075;44.084;2.962;2024-03-02T02:25:09;96794.31;;;8.61;65.18
50518;BME280;37075;44.084;2.962;2024-03-02T02:27:56;96799.75;;;8.61;65.14
50518;BME280;37075;44.084;2.962;2024-03-02T02:30:42;96790.47;;;8.62;65.19
50518;BME280;37075;44.084;2.962;2024-03-02T02:33:29;96787.75;;;8.62;65.25
50518;BME280;37075;44.084;2.962;2024-03-02T02:36:15;96785.84;;;8.63;65.31
50518;BME280;37075;44.084;2.962;2024-03-02T02:39:03;96790.91;;;8.64;65.29
50518;BME280;37075;44.084;2.962;2024-03-02T02:41:51;96787.06;;;8.65;65.27
50518;BME280;37075;44.084;2.962;2024-03-02T02:44:37;96782.88;;;8.68;65.19
50518;BME280;37075;44.084;2.962;2024-03-02T02:47:23;96771.66;;;8.70;65.31
50518;BME280;37075;44.084;2.962;2024-03-02T02:50:09;96770.06;;;8.69;65.22
50518;BME280;37075;44.084;2.962;2024-03-02T02:52:56;96761.56;;;8.70;65.17
50518;BME280;37075;44.084;2.962;2024-03-02T02:55:44;96756.91;;;8.71;65.36
50518;BME280;37075;44.084;2.962;2024-03-02T02:58:29;96753.06;;;8.72;65.25
50518;BME280;37075;44.084;2.962;2024-03-02T03:01:16;96743.78;;;8.73;65.40
50518;BME280;37075;44.084;2.962;2024-03-02T03:04:02;96741.84;;;8.73;65.18
50518;BME280;37075;44.084;2.962;2024-03-02T03:06:48;96736.06;;;8.75;65.24
50518;BME280;37075;44.084;2.962;2024-03-02T03:09:37;96743.78;;;8.73;65.69
50518;BME280;37075;44.084;2.962;2024-03-02T03:12:25;96718.06;;;8.70;65.45
50518;BME280;37075;44.084;2.962;2024-03-02T03:15:11;96721.59;;;8.71;65.44
50518;BME280;37075;44.084;2.962;2024-03-02T03:17:58;96714.22;;;8.71;65.48
50518;BME280;37075;44.084;2.962;2024-03-02T03:20:44;96722.38;;;8.71;65.52
50518;BME280;37075;44.084;2.962;2024-03-02T03:23:30;96706.84;;;8.72;65.43
50518;BME280;37075;44.084;2.962;2024-03-02T03:26:16;96717.38;;;8.73;65.43
50518;BME280;37075;44.084;2.962;2024-03-02T03:29:04;96709.56;;;8.72;65.45
50518;BME280;37075;44.084;2.962;2024-03-02T03:31:49;96708.00;;;8.71;65.48
50518;BME280;37075;44.084;2.962;2024-03-02T03:34:35;96702.34;;;8.63;65.92
50518;BME280;37075;44.084;2.962;2024-03-02T03:37:22;96695.69;;;8.61;65.92
50518;BME280;37075;44.084;2.962;2024-03-02T03:40:09;96691.41;;;8.60;65.92
50518;BME280;37075;44.084;2.962;2024-03-02T03:42:55;96696.03;;;8.59;65.90
50518;BME280;37075;44.084;2.962;2024-03-02T03:45:43;96682.88;;;8.61;65.83
50518;BME280;37075;44.084;2.962;2024-03-02T03:48:29;96687.19;;;8.62;65.98
50518;BME280;37075;44.084;2.962;2024-03-02T03:51:16;96691.50;;;8.63;65.88
50518;BME280;37075;44.084;2.962;2024-03-02T03:54:01;96686.84;;;8.64;65.77
50518;BME280;37075;44.084;2.962;2024-03-02T03:56:47;96681.41;;;8.64;65.80
50518;BME280;37075;44.084;2.962;2024-03-02T03:59:34;96684.91;;;8.64;65.48
50518;BME280;37075;44.084;2.962;2024-03-02T04:02:23;96675.97;;;8.64;65.75
50518;BME280;37075;44.084;2.962;2024-03-02T04:05:10;96675.97;;;8.64;65.64
50518;BME280;37075;44.084;2.962;2024-03-02T04:07:56;96669.31;;;8.61;65.63
50518;BME280;37075;44.084;2.962;2024-03-02T04:10:42;96675.88;;;8.60;65.47
50518;BME280;37075;44.084;2.962;2024-03-02T04:13:28;96672.69;;;8.58;65.39
50518;BME280;37075;44.084;2.962;2024-03-02T04:16:14;96677.22;;;8.54;65.27
50518;BME280;37075;44.084;2.962;2024-03-02T04:19:02;96669.78;;;8.51;65.26
50518;BME280;37075;44.084;2.962;2024-03-02T04:21:49;96680.19;;;8.49;65.22
50518;BME280;37075;44.084;2.962;2024-03-02T04:24:35;96677.03;;;8.47;65.21
50518;BME280;37075;44.084;2.962;2024-03-02T04:27:20;96657.13;;;8.43;65.09
50518;BME280;37075;44.084;2.962;2024-03-02T04:30:07;96657.47;;;8.42;65.13
50518;BME280;37075;44.084;2.962;2024-03-02T04:32:53;96656.25;;;8.39;65.10
50518;BME280;37075;44.084;2.962;2024-03-02T04:35:41;96652.63;;;8.35;64.99
50518;BME280;37075;44.084;2.962;2024-03-02T04:38:27;96639.69;;;8.32;64.97
50518;BME280;37075;44.084;2.962;2024-03-02T04:41:13;96643.78;;;8.26;65.08
50518;BME280;37075;44.084;2.962;2024-03-02T04:43:59;96645.63;;;8.22;65.15
50518;BME280;37075;44.084;2.962;2024-03-02T04:46:45;96639.19;;;8.14;65.31
50518;BME280;37075;44.084;2.962;2024-03-02T04:49:31;96631.75;;;8.11;65.35
50518;BME280;37075;44.084;2.962;2024-03-02T04:52:18;96631.28;;;8.09;65.31
50518;BME280;37075;44.084;2.962;2024-03-02T04:55:05;96627.78;;;8.09;65.37
50518;BME280;37075;44.084;2.962;2024-03-02T04:58:14;96621.88;;;8.07;65.18
50518;BME280;37075;44.084;2.962;2024-03-02T05:01:00;96620.66;;;8.04;65.19
50518;BME280;37075;44.084;2.962;2024-03-02T05:03:46;96617.50;;;8.02;65.32
50518;BME280;37075;44.084;2.962;2024-03-02T05:06:32;96614.34;;;8.00;65.43
50518;BME280;37075;44.084;2.962;2024-03-02T05:09:19;96606.53;;;7.98;65.38
50518;BME280;37075;44.084;2.962;2024-03-02T05:12:05;96609.25;;;7.98;65.34
50518;BME280;37075;44.084;2.962;2024-03-02T05:15:08;96607.31;;;7.99;65.51
50518;BME280;37075;44.084;2.962;2024-03-02T05:17:54;96600.31;;;7.98;65.44
50518;BME280;37075;44.084;2.962;2024-03-02T05:20:41;96599.53;;;7.97;65.44
50518;BME280;37075;44.084;2.962;2024-03-02T05:23:27;96593.31;;;7.97;65.45
50518;BME280;37075;44.084;2.962;2024-03-02T05:26:15;96597.94;;;7.96;65.45
50518;BME280;37075;44.084;2.962;2024-03-02T05:29:01;96597.94;;;7.96;65.52
50518;BME280;37075;44.084;2.962;2024-03-02T05:31:48;96595.56;;;7.95;65.52
50518;BME280;37075;44.084;2.962;2024-03-02T05:34:34;96588.34;;;7.87;65.99
50518;BME280;37075;44.084;2.962;2024-03-02T05:37:20;96587.56;;;7.86;66.12
50518;BME280;37075;44.084;2.962;2024-03-02T05:40:07;96580.56;;;7.85;65.94
50518;BME280;37075;44.084;2.962;2024-03-02T05:42:56;96581.34;;;7.86;65.98
50518;BME280;37075;44.084;2.962;2024-03-02T05:45:42;96574.34;;;7.85;65.90
50518;BME280;37075;44.084;2.962;2024-03-02T05:48:28;96569.72;;;7.85;65.93
50518;BME280;37075;44.084;2.962;2024-03-02T05:51:14;96565.84;;;7.86;65.91
50518;BME280;37075;44.084;2.962;2024-03-02T05:54:00;96565.84;;;7.86;65.99
50518;BME280;37075;44.084;2.962;2024-03-02T05:56:46;96565.84;;;7.86;66.04
50518;BME280;37075;44.084;2.962;2024-03-02T05:59:33;96555.00;;;7.86;65.66
50518;BME280;37075;44.084;2.962;2024-03-02T06:02:19;96564.28;;;7.85;65.97
50518;BME280;37075;44.084;2.962;2024-03-02T06:05:06;96562.34;;;7.86;66.13
50518;BME280;37075;44.084;2.962;2024-03-02T06:07:53;96558.84;;;7.85;66.10
50518;BME280;37075;44.084;2.962;2024-03-02T06:10:40;96557.28;;;7.84;66.11
50518;BME280;37075;44.084;2.962;2024-03-02T06:13:26;96551.03;;;7.84;66.19
50518;BME280;37075;44.084;2.962;2024-03-02T06:16:13;96552.19;;;7.83;66.20
50518;BME280;37075;44.084;2.962;2024-03-02T06:18:59;96550.25;;;7.83;66.16
50518;BME280;37075;44.084;2.962;2024-03-02T06:21:45;96551.41;;;7.82;66.14
50518;BME280;37075;44.084;2.962;2024-03-02T06:24:31;96555.69;;;7.83;66.18
50518;BME280;37075;44.084;2.962;2024-03-02T06:27:17;96553.75;;;7.84;66.32
50518;BME280;37075;44.084;2.962;2024-03-02T06:30:04;96552.53;;;7.81;66.31
50518;BME280;37075;44.084;2.962;2024-03-02T06:32:51;96548.69;;;7.82;66.36
50518;BME280;37075;44.084;2.962;2024-03-02T06:35:37;96540.06;;;7.80;66.31
50518;BME280;37075;44.084;2.962;2024-03-02T06:38:23;96541.66;;;7.81;66.39
50518;BME280;37075;44.084;2.962;2024-03-02T06:41:09;96541.31;;;7.83;66.43
50518;BME280;37075;44.084;2.962;2024-03-02T06:43:55;96536.69;;;7.83;66.44
50518;BME280;37075;44.084;2.962;2024-03-02T06:46:44;96533.97;;;7.83;66.75
50518;BME280;37075;44.084;2.962;2024-03-02T06:49:31;96539.41;;;7.83;66.47
50518;BME280;37075;44.084;2.962;2024-03-02T06:52:19;96535.91;;;7.83;66.54
50518;BME280;37075;44.084;2.962;2024-03-02T06:55:06;96535.09;;;7.82;66.56
50518;BME280;37075;44.084;2.962;2024-03-02T06:57:52;96540.97;;;7.84;66.61
50518;BME280;37075;44.084;2.962;2024-03-02T07:00:38;96533.28;;;7.86;66.68
50518;BME280;37075;44.084;2.962;2024-03-02T07:03:24;96536.44;;;7.88;66.83
50518;BME280;37075;44.084;2.962;2024-03-02T07:06:11;96535.75;;;7.91;66.77
50518;BME280;37075;44.084;2.962;2024-03-02T07:08:58;96528.38;;;7.92;66.85
50518;BME280;37075;44.084;2.962;2024-03-02T07:11:43;96532.69;;;7.93;66.75
50518;BME280;37075;44.084;2.962;2024-03-02T07:14:29;96516.03;;;7.94;66.88
50518;BME280;37075;44.084;2.962;2024-03-02T07:17:29;96525.78;;;7.95;66.98
50518;BME280;37075;44.084;2.962;2024-03-02T07:20:15;96512.63;;;7.97;67.05
50518;BME280;37075;44.084;2.962;2024-03-02T07:23:03;96510.38;;;7.99;67.08
50518;BME280;37075;44.084;2.962;2024-03-02T07:25:50;96506.50;;;8.00;67.03
50518;BME280;37075;44.084;2.962;2024-03-02T07:28:39;96499.59;;;8.03;67.21
50518;BME280;37075;44.084;2.962;2024-03-02T07:31:25;96496.53;;;8.04;67.23
50518;BME280;37075;44.084;2.962;2024-03-02T07:34:11;96498.91;;;8.06;67.36
50518;BME280;37075;44.084;2.962;2024-03-02T07:36:57;96488.50;;;8.08;67.42
50518;BME280;37075;44.084;2.962;2024-03-02T07:39:45;96478.88;;;8.11;67.53
50518;BME280;37075;44.084;2.962;2024-03-02T07:42:31;96478.19;;;8.14;67.38
50518;BME280;37075;44.084;2.962;2024-03-02T07:45:17;96469.78;;;8.19;67.57
50518;BME280;37075;44.084;2.962;2024-03-02T07:48:04;96460.91;;;8.22;67.69
50518;BME280;37075;44.084;2.962;2024-03-02T07:50:50;96470.22;;;8.21;67.88
50518;BME280;37075;44.084;2.962;2024-03-02T07:53:36;96481.88;;;8.21;69.14
50518;BME280;37075;44.084;2.962;2024-03-02T07:56:23;96482.72;;;8.10;69.33
50518;BME280;37075;44.084;2.962;2024-03-02T07:59:09;96484.66;;;8.09;69.33
50518;BME280;37075;44.084;2.962;2024-03-02T08:01:56;96483.59;;;8.14;68.89
50518;BME280;37075;44.084;2.962;2024-03-02T08:04:42;96473.53;;;8.14;69.15
50518;BME280;37075;44.084;2.962;2024-03-02T08:07:30;96485.81;;;8.24;69.41
50518;BME280;37075;44.084;2.962;2024-03-02T08:10:16;96473.53;;;8.30;68.97
50518;BME280;37075;44.084;2.962;2024-03-02T08:13:04;96482.38;;;8.39;68.89
50518;BME280;37075;44.084;2.962;2024-03-02T08:15:50;96467.47;;;8.49;68.87
50518;BME280;37075;44.084;2.962;2024-03-02T08:18:36;96474.63;;;8.57;68.80
50518;BME280;37075;44.084;2.962;2024-03-02T08:21:22;96467.91;;;8.67;68.87
50518;BME280;37075;44.084;2.962;2024-03-02T08:24:07;96461.06;;;8.73;68.93
50518;BME280;37075;44.084;2.962;2024-03-02T08:26:54;96460.88;;;8.81;68.94
50518;BME280;37075;44.084;2.962;2024-03-02T08:29:41;96463.00;;;8.88;68.84
50518;BME280;37075;44.084;2.962;2024-03-02T08:32:27;96452.97;;;8.92;68.93
50518;BME280;37075;44.084;2.962;2024-03-02T08:35:15;96448.13;;;9.01;69.22
50518;BME280;37075;44.084;2.962;2024-03-02T08:38:02;96436.25;;;9.09;69.20
50518;BME280;37075;44.084;2.962;2024-03-02T08:40:49;96436.44;;;9.16;69.09
50518;BME280;37075;44.084;2.962;2024-03-02T08:43:35;96429.28;;;9.27;69.06
50518;BME280;37075;44.084;2.962;2024-03-02T08:46:22;96433.38;;;9.37;68.88
50518;BME280;37075;44.084;2.962;2024-03-02T08:49:09;96430.81;;;9.44;68.69
50518;BME280;37075;44.084;2.962;2024-03-02T08:51:55;96425.50;;;9.51;68.79
50518;BME280;37075;44.084;2.962;2024-03-02T08:54:41;96410.09;;;9.59;68.50
50518;BME280;37075;44.084;2.962;2024-03-02T08:57:27;96398.22;;;9.67;68.51
50518;BME280;37075;44.084;2.962;2024-03-02T09:00:13;96395.31;;;9.79;68.56
50518;BME280;37075;44.084;2.962;2024-03-02T09:03:00;96399.91;;;9.95;68.62
50518;BME280;37075;44.084;2.962;2024-03-02T09:05:46;96400.16;;;10.09;68.51
50518;BME280;37075;44.084;2.962;2024-03-02T09:08:32;96392.69;;;10.25;68.19
50518;BME280;37075;44.084;2.962;2024-03-02T09:11:20;96391.34;;;10.38;68.36
50518;BME280;37075;44.084;2.962;2024-03-02T09:14:06;96385.34;;;10.52;67.94
50518;BME280;37075;44.084;2.962;2024-03-02T09:16:53;96358.50;;;10.54;66.21
50518;BME280;37075;44.084;2.962;2024-03-02T09:19:40;96356.00;;;10.68;66.22
50518;BME280;37075;44.084;2.962;2024-03-02T09:22:26;96355.88;;;10.88;66.19
50518;BME280;37075;44.084;2.962;2024-03-02T09:25:12;96366.94;;;10.98;65.94
50518;BME280;37075;44.084;2.962;2024-03-02T09:27:59;96371.69;;;11.05;64.67
50518;BME280;37075;44.084;2.962;2024-03-02T09:30:44;96377.28;;;11.16;64.14
50518;BME280;37075;44.084;2.962;2024-03-02T09:33:31;96353.34;;;11.32;64.07
50518;BME280;37075;44.084;2.962;2024-03-02T09:36:19;96355.91;;;11.51;63.95
50518;BME280;37075;44.084;2.962;2024-03-02T09:39:07;96357.66;;;11.70;63.62
50518;BME280;37075;44.084;2.962;2024-03-02T09:41:54;96348.16;;;11.90;63.81
50518;BME280;37075;44.084;2.962;2024-03-02T09:44:40;96355.75;;;12.08;63.42
50518;BME280;37075;44.084;2.962;2024-03-02T09:47:26;96350.09;;;12.27;63.42
50518;BME280;37075;44.084;2.962;2024-03-02T09:50:12;96338.47;;;12.41;62.46
50518;BME280;37075;44.084;2.962;2024-03-02T09:53:01;96349.53;;;12.55;62.42
50518;BME280;37075;44.084;2.962;2024-03-02T09:55:48;96343.72;;;12.67;61.48
50518;BME280;37075;44.084;2.962;2024-03-02T09:58:34;96341.03;;;12.74;59.83
50518;BME280;37075;44.084;2.962;2024-03-02T10:01:20;96318.41;;;12.77;59.96
50518;BME280;37075;44.084;2.962;2024-03-02T10:04:05;96337.97;;;12.79;59.37
50518;BME280;37075;44.084;2.962;2024-03-02T10:06:51;96330.97;;;12.89;60.03
50518;BME280;37075;44.084;2.962;2024-03-02T10:09:38;96330.63;;;12.97;59.95
50518;BME280;37075;44.084;2.962;2024-03-02T10:12:24;96318.13;;;12.96;59.22
50518;BME280;37075;44.084;2.962;2024-03-02T10:15:11;96311.16;;;13.06;58.82
50518;BME280;37075;44.084;2.962;2024-03-02T10:17:57;96317.03;;;13.12;58.74
50518;BME280;37075;44.084;2.962;2024-03-02T10:20:43;96303.75;;;13.14;58.49
50518;BME280;37075;44.084;2.962;2024-03-02T10:23:30;96304.97;;;13.20;58.33
50518;BME280;37075;44.084;2.962;2024-03-02T10:26:18;96304.19;;;13.26;58.32
50518;BME280;37075;44.084;2.962;2024-03-02T10:29:04;96288.59;;;13.31;57.94
50518;BME280;37075;44.084;2.962;2024-03-02T10:31:50;96277.25;;;13.36;57.99
50518;BME280;37075;44.084;2.962;2024-03-02T10:34:37;96271.41;;;13.41;58.05
50518;BME280;37075;44.084;2.962;2024-03-02T10:37:24;96269.47;;;13.48;57.97
50518;BME280;37075;44.084;2.962;2024-03-02T10:40:11;96270.63;;;13.51;57.81
50518;BME280;37075;44.084;2.962;2024-03-02T10:43:01;96267.91;;;13.51;56.35
50518;BME280;37075;44.084;2.962;2024-03-02T10:45:49;96279.25;;;13.49;56.95
50518;BME280;37075;44.084;2.962;2024-03-02T10:48:35;96276.94;;;13.62;57.09
50518;BME280;37075;44.084;2.962;2024-03-02T10:51:22;96277.78;;;13.80;57.52
50518;BME280;37075;44.084;2.962;2024-03-02T10:54:08;96268.38;;;13.88;56.99
50518;BME280;37075;44.084;2.962;2024-03-02T10:56:58;96262.50;;;13.97;56.66
50518;BME280;37075;44.084;2.962;2024-03-02T10:59:52;96271.50;;;13.98;56.39
50518;BME280;37075;44.084;2.962;2024-03-02T11:02:41;96257.78;;;14.05;56.36
50518;BME280;37075;44.084;2.962;2024-03-02T11:05:34;96255.47;;;14.14;55.80
50518;BME280;37075;44.084;2.962;2024-03-02T11:08:22;96251.53;;;14.18;55.69
50518;BME280;37075;44.084;2.962;2024-03-02T11:11:15;96239.78;;;14.25;55.59
50518;BME280;37075;44.084;2.962;2024-03-02T11:14:02;96247.59;;;14.27;54.90
50518;BME280;37075;44.084;2.962;2024-03-02T11:16:54;96229.59;;;14.22;54.69
50518;BME280;37075;44.084;2.962;2024-03-02T11:19:41;96227.63;;;14.30;54.62
50518;BME280;37075;44.084;2.962;2024-03-02T11:22:27;96220.94;;;14.31;54.93
50518;BME280;37075;44.084;2.962;2024-03-02T11:25:24;96222.91;;;14.30;54.59
50518;BME280;37075;44.084;2.962;2024-03-02T11:28:10;96213.53;;;14.31;54.75
50518;BME280;37075;44.084;2.962;2024-03-02T11:30:56;96199.03;;;14.38;54.87
50518;BME280;37075;44.084;2.962;2024-03-02T11:33:44;96197.47;;;14.44;54.69
50518;BME280;37075;44.084;2.962;2024-03-02T11:36:30;96189.59;;;14.49;54.57
50518;BME280;37075;44.084;2.962;2024-03-02T11:39:18;96180.56;;;14.56;54.48
50518;BME280;37075;44.084;2.962;2024-03-02T11:42:05;96183.31;;;14.63;54.28
50518;BME280;37075;44.084;2.962;2024-03-02T11:44:56;96195.84;;;14.57;53.49
50518;BME280;37075;44.084;2.962;2024-03-02T11:47:46;96167.22;;;14.65;53.64
50518;BME280;37075;44.084;2.962;2024-03-02T11:50:41;96163.28;;;14.70;53.13
50518;BME280;37075;44.084;2.962;2024-03-02T11:53:27;96166.00;;;14.84;53.74
50518;BME280;37075;44.084;2.962;2024-03-02T11:56:14;96162.00;;;14.96;51.95
50518;BME280;37075;44.084;2.962;2024-03-02T11:59:01;96161.91;;;15.14;53.15
50518;BME280;37075;44.084;2.962;2024-03-02T12:01:48;96142.94;;;15.33;53.36
50518;BME280;37075;44.084;2.962;2024-03-02T12:04:36;96133.00;;;15.50;52.85
50518;BME280;37075;44.084;2.962;2024-03-02T12:07:24;96130.84;;;15.79;51.93
50518;BME280;37075;44.084;2.962;2024-03-02T12:10:10;96128.28;;;16.02;52.65
50518;BME280;37075;44.084;2.962;2024-03-02T12:12:58;96117.81;;;16.28;52.25
50518;BME280;37075;44.084;2.962;2024-03-02T12:15:44;96108.94;;;16.47;52.02
50518;BME280;37075;44.084;2.962;2024-03-02T12:18:30;96103.25;;;16.61;51.05
50518;BME280;37075;44.084;2.962;2024-03-02T12:21:16;96096.88;;;16.72;50.64
50518;BME280;37075;44.084;2.962;2024-03-02T12:24:04;96088.56;;;16.75;50.59
50518;BME280;37075;44.084;2.962;2024-03-02T12:26:51;96094.75;;;16.83;49.75
50518;BME280;37075;44.084;2.962;2024-03-02T12:29:38;96082.25;;;16.78;49.34
50518;BME280;37075;44.084;2.962;2024-03-02T12:32:24;96073.66;;;16.73;47.43
50518;BME280;37075;44.084;2.962;2024-03-02T12:35:12;96071.84;;;16.59;47.94
50518;BME280;37075;44.084;2.962;2024-03-02T12:38:00;96075.16;;;16.47;47.53
50518;BME280;37075;44.084;2.962;2024-03-02T12:40:49;96064.56;;;16.45;48.19
50518;BME280;37075;44.084;2.962;2024-03-02T12:43:35;96061.44;;;16.43;47.11
50518;BME280;37075;44.084;2.962;2024-03-02T12:46:21;96061.34;;;16.50;48.18
50518;BME280;37075;44.084;2.962;2024-03-02T12:49:09;96053.13;;;16.47;47.29
50518;BME280;37075;44.084;2.962;2024-03-02T12:51:56;96050.31;;;16.50;47.70
50518;BME280;37075;44.084;2.962;2024-03-02T12:54:42;96034.91;;;16.56;46.15
50518;BME280;37075;44.084;2.962;2024-03-02T12:57:31;96040.09;;;16.51;47.01
50518;BME280;37075;44.084;2.962;2024-03-02T13:00:19;96030.28;;;16.50;46.59
50518;BME280;37075;44.084;2.962;2024-03-02T13:03:06;96025.81;;;16.59;47.02
50518;BME280;37075;44.084;2.962;2024-03-02T13:05:52;96018.72;;;16.62;46.17
50518;BME280;37075;44.084;2.962;2024-03-02T13:08:39;96033.63;;;16.64;45.19
50518;BME280;37075;44.084;2.962;2024-03-02T13:11:25;96031.28;;;16.63;46.12
50518;BME280;37075;44.084;2.962;2024-03-02T13:14:13;96026.81;;;16.76;46.40
50518;BME280;37075;44.084;2.962;2024-03-02T13:16:59;96021.25;;;16.80;45.56
50518;BME280;37075;44.084;2.962;2024-03-02T13:19:52;96011.31;;;16.86;45.99
50518;BME280;37075;44.084;2.962;2024-03-02T13:22:38;96004.97;;;16.89;45.78
50518;BME280;37075;44.084;2.962;2024-03-02T13:25:25;95999.03;;;16.94;45.44
50518;BME280;37075;44.084;2.962;2024-03-02T13:28:11;96005.91;;;17.06;45.50
50518;BME280;37075;44.084;2.962;2024-03-02T13:30:58;96002.31;;;17.09;45.18
50518;BME280;37075;44.084;2.962;2024-03-02T13:33:45;96016.75;;;17.16;45.06
50518;BME280;37075;44.084;2.962;2024-03-02T13:36:31;96008.81;;;17.22;45.34
50518;BME280;37075;44.084;2.962;2024-03-02T13:39:17;96002.94;;;17.20;44.83
50518;BME280;37075;44.084;2.962;2024-03-02T13:42:05;95997.38;;;17.23;44.87
50518;BME280;37075;44.084;2.962;2024-03-02T13:44:52;95990.19;;;17.30;44.79
50518;BME280;37075;44.084;2.962;2024-03-02T13:47:39;95992.88;;;17.33;45.27
50518;BME280;37075;44.084;2.962;2024-03-02T13:50:25;95991.19;;;17.39;45.07
50518;BME280;37075;44.084;2.962;2024-03-02T13:53:12;95983.25;;;17.45;45.16
50518;BME280;37075;44.084;2.962;2024-03-02T13:55:58;95972.16;;;17.48;44.68
50518;BME280;37075;44.084;2.962;2024-03-02T13:58:44;95979.31;;;17.42;44.16
50518;BME280;37075;44.084;2.962;2024-03-02T14:01:31;95956.56;;;17.38;43.96
50518;BME280;37075;44.084;2.962;2024-03-02T14:04:18;95955.06;;;17.34;44.53
50518;BME280;37075;44.084;2.962;2024-03-02T14:07:05;95960.28;;;17.28;44.16
50518;BME280;37075;44.084;2.962;2024-03-02T14:09:52;95943.06;;;17.24;43.72
50518;BME280;37075;44.084;2.962;2024-03-02T14:12:38;95955.63;;;17.25;44.09
50518;BME280;37075;44.084;2.962;2024-03-02T14:15:25;95953.94;;;17.31;44.51
50518;BME280;37075;44.084;2.962;2024-03-02T14:18:11;95943.50;;;17.42;44.28
50518;BME280;37075;44.084;2.962;2024-03-02T14:20:58;95928.69;;;17.56;44.50
50518;BME280;37075;44.084;2.962;2024-03-02T14:23:45;95927.53;;;17.77;44.51
50518;BME280;37075;44.084;2.962;2024-03-02T14:26:31;95941.31;;;17.97;43.50
50518;BME280;37075;44.084;2.962;2024-03-02T14:29:17;95930.75;;;18.11;43.76
50518;BME280;37075;44.084;2.962;2024-03-02T14:32:05;95933.06;;;18.33;43.73
50518;BME280;37075;44.084;2.962;2024-03-02T14:34:51;95930.63;;;18.55;43.84
50518;BME280;37075;44.084;2.962;2024-03-02T14:37:39;95926.44;;;18.66;43.07
50518;BME280;37075;44.084;2.962;2024-03-02T14:40:25;95941.34;;;18.69;42.83
50518;BME280;37075;44.084;2.962;2024-03-02T14:43:14;95937.66;;;18.75;42.93
50518;BME280;37075;44.084;2.962;2024-03-02T14:46:00;95943.06;;;18.63;42.32
50518;BME280;37075;44.084;2.962;2024-03-02T14:48:46;95935.13;;;18.65;42.38
50518;BME280;37075;44.084;2.962;2024-03-02T14:51:32;95925.66;;;18.66;42.65
50518;BME280;37075;44.084;2.962;2024-03-02T14:54:20;95929.06;;;18.54;42.00